Time;durP1;ratioP1;P1;durP2;ratioP2;P2;SDS_P1;SDS_P2;PMS_P1;PMS_P2;Temp;Humidity;BMP_temperature;BMP_pressure;BME280_temperature;BME280_humidity;BME280_pressure;Samples;Min_cycle;Max_cycle;Signal;HPM_P1;HPM_P2
2023/04/09 00:01:10;;;;;;;17.30;12.25;;;8.50;99.90;;;;;;4986917;28;20053;-82
2023/04/09 00:03:37;;;;;;;22.42;11.18;;;8.50;99.90;;;;;;4985725;28;20046;-79
2023/04/09 00:06:04;;;;;;;25.20;12.13;;;8.60;99.90;;;;;;4987173;28;20046;-83
2023/04/09 00:08:29;;;;;;;20.05;13.07;;;8.50;99.90;;;;;;4985891;28;20046;-81
2023/04/09 00:10:57;;;;;;;28.42;11.75;;;8.50;99.90;;;;;;4986983;28;20104;-82
2023/04/09 00:13:22;;;;;;;17.20;11.73;;;8.50;99.90;;;;;;4986136;28;20092;-80
2023/04/09 00:15:49;;;;;;;23.60;13.23;;;8.50;99.90;;;;;;4986577;28;20081;-80
2023/04/09 00:18:15;;;;;;;26.38;13.40;;;8.60;99.90;;;;;;4986191;28;21010;-81
2023/04/09 00:20:42;;;;;;;20.23;11.68;;;8.60;99.90;;;;;;4985628;28;20377;-81
2023/04/09 00:23:08;;;;;;;25.00;13.82;;;8.60;99.90;;;;;;4986203;28;20066;-81
2023/04/09 00:25:34;;;;;;;25.80;10.93;;;8.60;99.90;;;;;;4985226;28;20667;-81
2023/04/09 00:28:00;;;;;;;14.05;11.20;;;8.60;99.90;;;;;;4986770;28;20057;-82
2023/04/09 00:30:28;;;;;;;23.58;13.82;;;8.60;99.90;;;;;;4986608;28;20077;-80
2023/04/09 00:32:54;;;;;;;24.55;13.00;;;8.60;99.90;;;;;;4987479;28;20050;-82
2023/04/09 00:35:19;;;;;;;21.02;14.15;;;8.60;99.90;;;;;;4986907;28;20100;-82
2023/04/09 00:37:45;;;;;;;21.25;12.30;;;8.60;99.90;;;;;;4986296;28;20042;-82
2023/04/09 00:40:11;;;;;;;23.95;11.95;;;8.60;99.90;;;;;;4984320;28;20512;-82
2023/04/09 00:42:36;;;;;;;18.88;13.35;;;8.60;99.90;;;;;;4986224;28;20034;-82
2023/04/09 00:45:03;;;;;;;19.70;13.30;;;8.60;99.90;;;;;;4985343;28;20043;-82
2023/04/09 00:47:29;;;;;;;20.90;12.80;;;8.60;99.90;;;;;;4976941;28;20098;-79
2023/04/09 00:49:56;;;;;;;25.80;13.75;;;8.60;99.90;;;;;;4984659;28;20053;-81
2023/04/09 00:52:22;;;;;;;22.63;14.65;;;8.60;99.90;;;;;;4986811;28;20132;-81
2023/04/09 00:54:51;;;;;;;23.02;14.57;;;8.60;99.90;;;;;;4984761;28;20078;-80
2023/04/09 00:57:17;;;;;;;25.40;14.77;;;8.60;99.90;;;;;;4985998;28;20038;-80
2023/04/09 00:59:43;;;;;;;22.58;14.43;;;8.60;99.90;;;;;;4986024;28;20503;-82
2023/04/09 01:02:09;;;;;;;21.17;13.57;;;8.60;99.90;;;;;;4986008;28;20045;-82
2023/04/09 01:04:36;;;;;;;20.13;15.07;;;8.60;99.90;;;;;;4985758;28;20461;-82
2023/04/09 01:07:31;;;;;;;25.30;16.52;;;8.60;99.90;;;;;;4986163;28;20039;-82
2023/04/09 01:10:23;;;;;;;19.33;14.65;;;8.60;99.90;;;;;;4983783;28;20054;-82
2023/04/09 01:12:51;;;;;;;23.03;14.37;;;8.60;99.90;;;;;;4967275;28;20042;-81
2023/04/09 01:15:24;;;;;;;28.75;15.48;;;8.60;99.90;;;;;;5026018;22;1062040;-78
2023/04/09 01:17:58;;;;;;;25.25;14.27;;;8.60;99.90;;;;;;5004273;28;20164;-82
2023/04/09 01:20:42;;;;;;;23.02;14.35;;;8.60;99.90;;;;;;4988233;28;20050;-80
2023/04/09 01:23:44;;;;;;;23.15;16.15;;;8.60;99.90;;;;;;4986411;28;20140;-81
2023/04/09 01:26:20;;;;;;;30.33;17.30;;;8.60;99.90;;;;;;5004363;28;20536;-82
2023/04/09 01:28:51;;;;;;;21.77;15.13;;;8.60;99.90;;;;;;5004528;28;20046;-81
2023/04/09 01:31:18;;;;;;;24.45;15.50;;;8.60;99.90;;;;;;5005030;28;20419;-82
2023/04/09 01:33:45;;;;;;;23.05;13.50;;;8.60;99.90;;;;;;5004561;28;20650;-82
2023/04/09 01:36:11;;;;;;;19.95;12.82;;;8.60;99.90;;;;;;5003493;28;20069;-79
2023/04/09 01:38:40;;;;;;;20.33;13.82;;;8.60;99.90;;;;;;5002127;28;20392;-81
2023/04/09 01:41:08;;;;;;;23.00;13.57;;;8.60;99.90;;;;;;4987161;28;20050;-80
2023/04/09 01:43:36;;;;;;;19.55;12.40;;;8.60;99.90;;;;;;5004174;28;20536;-80
2023/04/09 01:46:02;;;;;;;20.05;12.90;;;8.70;99.90;;;;;;5004112;28;20091;-78
2023/04/09 01:48:29;;;;;;;20.83;12.18;;;8.60;99.90;;;;;;5004425;28;20238;-81
2023/04/09 01:50:56;;;;;;;21.48;13.02;;;8.70;99.90;;;;;;5004071;28;20054;-81
2023/04/09 01:53:22;;;;;;;27.40;13.68;;;8.70;99.90;;;;;;5003948;28;20046;-81
2023/04/09 01:55:47;;;;;;;18.42;11.82;;;8.70;99.90;;;;;;5004498;28;20103;-81
2023/04/09 01:58:13;;;;;;;23.08;11.65;;;8.70;99.90;;;;;;5003089;28;20428;-81
2023/04/09 02:00:45;;;;;;;21.27;13.18;;;8.70;99.90;;;;;;5003814;28;20042;-79
2023/04/09 02:03:16;;;;;;;;;;;8.60;99.90;;;;;;4994868;28;20037;-80
2023/04/09 02:06:00;;;;;;;24.35;14.85;;;8.70;99.90;;;;;;5003777;28;19917;-81
2023/04/09 02:08:27;;;;;;;20.27;12.65;;;8.60;99.90;;;;;;5003175;28;20121;-80
2023/04/09 02:10:57;;;;;;;25.45;12.77;;;8.60;99.90;;;;;;5003282;28;20045;-79
2023/04/09 02:13:25;;;;;;;19.58;13.15;;;8.60;99.90;;;;;;5002986;28;20050;-79
2023/04/09 02:15:51;;;;;;;30.50;15.02;;;8.60;99.90;;;;;;5004085;28;20049;-78
2023/04/09 02:18:35;;;;;;;25.67;16.38;;;8.60;99.90;;;;;;5003616;28;20064;-81
2023/04/09 02:21:01;;;;;;;25.55;11.70;;;8.60;99.90;;;;;;5003869;28;20042;-81
2023/04/09 02:23:27;;;;;;;27.67;13.60;;;8.60;99.90;;;;;;5003093;28;20069;-81
2023/04/09 02:25:53;;;;;;;26.13;13.18;;;8.60;99.90;;;;;;5003241;28;20046;-81
2023/04/09 02:28:19;;;;;;;23.73;15.68;;;8.60;99.90;;;;;;5002210;28;20380;-81
2023/04/09 02:30:44;;;;;;;26.67;14.63;;;8.60;99.90;;;;;;5002835;28;20050;-82
2023/04/09 02:33:10;;;;;;;27.85;13.63;;;8.60;99.90;;;;;;5003308;28;20453;-81
2023/04/09 02:35:36;;;;;;;27.52;16.25;;;8.60;99.90;;;;;;5003999;28;20045;-80
2023/04/09 02:38:01;;;;;;;28.80;15.50;;;8.60;99.90;;;;;;5002975;28;20496;-81
2023/04/09 02:40:27;;;;;;;22.75;16.45;;;8.60;99.90;;;;;;5003725;28;20038;-81
2023/04/09 02:42:53;;;;;;;21.75;15.63;;;8.60;99.90;;;;;;5004211;28;20042;-80
2023/04/09 02:45:19;;;;;;;24.80;14.57;;;8.60;99.90;;;;;;5002816;28;20046;-81
2023/04/09 02:47:44;;;;;;;19.75;13.88;;;8.60;99.90;;;;;;5002891;28;20100;-79
2023/04/09 02:50:10;;;;;;;26.30;14.43;;;8.60;99.90;;;;;;5004028;28;20044;-80
2023/04/09 02:52:36;;;;;;;26.20;15.98;;;8.50;99.90;;;;;;5001219;28;20041;-80
2023/04/09 02:55:02;;;;;;;31.80;16.77;;;8.50;99.90;;;;;;5002854;28;20050;-81
2023/04/09 02:57:27;;;;;;;22.15;15.23;;;8.50;99.90;;;;;;5005800;28;20443;-80
2023/04/09 02:59:53;;;;;;;22.35;14.30;;;8.50;99.90;;;;;;5008156;28;20049;-79
2023/04/09 03:02:18;;;;;;;32.90;15.70;;;8.50;99.90;;;;;;5008085;28;20042;-81
2023/04/09 03:04:44;;;;;;;24.60;15.25;;;8.50;99.90;;;;;;5006565;28;20069;-80
2023/04/09 03:07:10;;;;;;;33.00;16.05;;;8.50;99.90;;;;;;5007791;28;20037;-81
2023/04/09 03:09:36;;;;;;;28.92;15.55;;;8.50;99.90;;;;;;5006692;28;20124;-80
2023/04/09 03:12:01;;;;;;;28.08;14.65;;;8.50;99.90;;;;;;5005993;28;20088;-81
2023/04/09 03:14:27;;;;;;;25.88;15.07;;;8.50;99.90;;;;;;5006768;28;20096;-81
2023/04/09 03:16:53;;;;;;;30.27;16.70;;;8.50;99.90;;;;;;5006445;28;20741;-81
2023/04/09 03:19:18;;;;;;;29.27;14.07;;;8.50;99.90;;;;;;5007623;28;20072;-80
2023/04/09 03:21:45;;;;;;;25.52;17.00;;;8.50;99.90;;;;;;5006979;28;20432;-81
2023/04/09 03:24:11;;;;;;;30.50;16.42;;;8.50;99.90;;;;;;5006217;28;20046;-78
2023/04/09 03:26:37;;;;;;;29.65;14.52;;;8.50;99.90;;;;;;5005924;28;20091;-81
2023/04/09 03:29:04;;;;;;;32.88;17.98;;;8.40;99.90;;;;;;5006174;28;20045;-81
2023/04/09 03:31:30;;;;;;;29.65;15.52;;;8.40;99.90;;;;;;5006391;28;20041;-81
2023/04/09 03:33:55;;;;;;;31.55;18.67;;;8.40;99.90;;;;;;5006179;28;20492;-81
2023/04/09 03:36:21;;;;;;;31.38;15.82;;;8.40;99.90;;;;;;5004931;28;20084;-82
2023/04/09 03:38:47;;;;;;;26.92;17.10;;;8.40;99.90;;;;;;4987370;28;20040;-78
2023/04/09 03:41:12;;;;;;;30.80;16.75;;;8.40;99.90;;;;;;5004822;28;20404;-81
2023/04/09 03:43:38;;;;;;;28.27;18.05;;;8.40;99.90;;;;;;5004365;28;20488;-81
2023/04/09 03:46:14;;;;;;;30.33;15.90;;;8.40;99.90;;;;;;5005991;28;20049;-81
2023/04/09 03:48:40;;;;;;;27.70;16.58;;;8.40;99.90;;;;;;5005232;28;20608;-81
2023/04/09 03:51:06;;;;;;;38.28;17.33;;;8.40;99.90;;;;;;5006135;28;20092;-80
2023/04/09 03:53:31;;;;;;;33.20;17.73;;;8.40;99.90;;;;;;4986936;28;20085;-81
2023/04/09 03:55:57;;;;;;;27.77;16.30;;;8.30;99.90;;;;;;5004353;28;20495;-81
2023/04/09 03:58:23;;;;;;;27.42;16.58;;;8.30;99.90;;;;;;5005760;28;20041;-81
2023/04/09 04:00:48;;;;;;;27.15;15.05;;;8.30;99.90;;;;;;5005644;28;20480;-81
2023/04/09 04:03:15;;;;;;;26.27;16.73;;;8.30;99.90;;;;;;5004185;28;20799;-81
2023/04/09 04:05:41;;;;;;;24.95;14.27;;;8.30;99.90;;;;;;5005740;28;20058;-81
2023/04/09 04:08:06;;;;;;;30.23;17.20;;;8.30;99.90;;;;;;5002447;28;20392;-81
2023/04/09 04:10:35;;;;;;;23.05;13.60;;;8.30;99.90;;;;;;5004090;28;20042;-81
2023/04/09 04:13:01;;;;;;;25.85;15.68;;;8.30;99.90;;;;;;4987960;28;20288;-81
2023/04/09 04:15:27;;;;;;;25.13;14.10;;;8.30;99.90;;;;;;5004359;28;20057;-80
2023/04/09 04:17:52;;;;;;;30.15;17.42;;;8.30;99.90;;;;;;5006323;28;20045;-79
2023/04/09 04:20:18;;;;;;;28.23;16.48;;;8.30;99.90;;;;;;5005839;28;20574;-81
2023/04/09 04:22:44;;;;;;;32.92;17.77;;;8.30;99.90;;;;;;5004534;28;20046;-80
2023/04/09 04:25:09;;;;;;;27.38;13.23;;;8.30;99.90;;;;;;5003880;28;20217;-81
2023/04/09 04:27:35;;;;;;;21.38;15.68;;;8.20;99.90;;;;;;4987198;28;20351;-78
2023/04/09 04:30:01;;;;;;;29.67;15.50;;;8.20;99.90;;;;;;5005718;28;20147;-81
2023/04/09 04:32:26;;;;;;;24.80;16.02;;;8.20;99.90;;;;;;5004792;28;20034;-81
2023/04/09 04:34:52;;;;;;;23.05;14.05;;;8.20;99.90;;;;;;5004268;28;20078;-80
2023/04/09 04:37:18;;;;;;;32.63;14.18;;;8.30;99.90;;;;;;5004814;28;20085;-81
2023/04/09 04:39:44;;;;;;;18.40;15.68;;;8.20;99.90;;;;;;5003258;28;20050;-81
2023/04/09 04:42:09;;;;;;;19.17;13.93;;;8.20;99.90;;;;;;4986626;28;20420;-81
2023/04/09 04:44:35;;;;;;;22.70;12.70;;;8.20;99.90;;;;;;5003464;28;20520;-81
2023/04/09 04:47:00;;;;;;;26.02;11.25;;;8.20;99.90;;;;;;5004609;28;20120;-81
2023/04/09 04:49:26;;;;;;;23.20;12.23;;;8.20;99.90;;;;;;5004287;28;20033;-81
2023/04/09 04:51:51;;;;;;;30.38;15.82;;;8.20;99.90;;;;;;5005342;28;20510;-81
2023/04/09 04:54:17;;;;;;;23.70;14.05;;;8.20;99.90;;;;;;5002664;28;20045;-82
2023/04/09 04:56:43;;;;;;;18.77;11.65;;;8.20;99.90;;;;;;5004051;28;20034;-81
2023/04/09 04:59:08;;;;;;;28.10;14.40;;;8.20;99.90;;;;;;5003487;28;20133;-81
2023/04/09 05:01:34;;;;;;;19.33;11.85;;;8.30;99.90;;;;;;5003580;28;20124;-81
2023/04/09 05:04:01;;;;;;;23.58;13.25;;;8.20;99.90;;;;;;5004097;28;20149;-79
2023/04/09 05:06:28;;;;;;;18.73;13.07;;;8.20;99.90;;;;;;5004773;28;20096;-81
2023/04/09 05:08:56;;;;;;;24.95;12.70;;;8.20;99.90;;;;;;5003401;28;20044;-81
2023/04/09 05:11:23;;;;;;;20.45;14.02;;;8.20;99.90;;;;;;5004885;28;20046;-79
2023/04/09 05:13:49;;;;;;;21.90;13.10;;;8.20;99.90;;;;;;5004295;28;20068;-80
2023/04/09 05:16:17;;;;;;;17.35;11.77;;;8.20;99.90;;;;;;4986611;28;20045;-81
2023/04/09 05:18:43;;;;;;;21.85;13.05;;;8.20;99.90;;;;;;5002200;28;20141;-81
2023/04/09 05:21:08;;;;;;;19.00;11.20;;;8.10;99.90;;;;;;5002887;28;20413;-82
2023/04/09 05:23:34;;;;;;;19.52;12.55;;;8.10;99.90;;;;;;5001534;28;20108;-81
2023/04/09 05:25:59;;;;;;;18.70;12.23;;;8.10;99.90;;;;;;5003493;28;20536;-81
2023/04/09 05:28:25;;;;;;;22.15;12.38;;;8.10;99.90;;;;;;5004089;28;20205;-82
2023/04/09 05:30:50;;;;;;;17.63;11.15;;;8.10;99.90;;;;;;5004984;28;20037;-81
2023/04/09 05:33:16;;;;;;;19.23;10.30;;;8.10;99.90;;;;;;5001992;28;20484;-81
2023/04/09 05:35:41;;;;;;;16.08;10.57;;;8.10;99.90;;;;;;5002527;28;20068;-82
2023/04/09 05:38:07;;;;;;;21.67;12.80;;;8.20;99.90;;;;;;5003039;28;20046;-82
2023/04/09 05:40:34;;;;;;;19.42;12.13;;;8.20;99.90;;;;;;5003065;28;20456;-81
2023/04/09 05:42:59;;;;;;;20.40;12.68;;;8.20;99.90;;;;;;5003573;28;20042;-82
2023/04/09 05:45:27;;;;;;;25.42;12.07;;;8.10;99.90;;;;;;5003244;28;20377;-79
2023/04/09 05:47:53;;;;;;;18.67;12.80;;;8.10;99.90;;;;;;5002967;28;20519;-80
2023/04/09 05:50:19;;;;;;;20.33;10.38;;;8.20;99.90;;;;;;5004280;28;20041;-80
2023/04/09 05:52:44;;;;;;;13.07;9.48;;;8.20;99.90;;;;;;5002289;28;20080;-80
2023/04/09 05:55:10;;;;;;;15.70;9.95;;;8.20;99.90;;;;;;5002075;28;20049;-81
2023/04/09 05:57:36;;;;;;;15.93;10.18;;;8.20;99.90;;;;;;5004080;28;20042;-80
2023/04/09 06:00:01;;;;;;;15.70;9.13;;;8.20;99.90;;;;;;4986013;28;20060;-80
2023/04/09 06:02:27;;;;;;;16.42;10.50;;;8.20;99.90;;;;;;5002367;28;20042;-80
2023/04/09 06:04:53;;;;;;;17.20;10.73;;;8.20;99.90;;;;;;5002273;28;20046;-80
2023/04/09 06:07:18;;;;;;;19.80;10.20;;;8.20;99.90;;;;;;4984527;28;20046;-80
2023/04/09 06:09:45;;;;;;;12.05;9.10;;;8.20;99.90;;;;;;5001253;28;20088;-78
2023/04/09 06:12:12;;;;;;;16.67;9.50;;;8.30;99.90;;;;;;5001266;28;20104;-80
2023/04/09 06:14:38;;;;;;;11.57;8.18;;;8.20;99.90;;;;;;5002819;28;20534;-80
2023/04/09 06:17:03;;;;;;;17.42;10.65;;;8.20;99.90;;;;;;5003022;28;20041;-81
2023/04/09 06:19:29;;;;;;;21.30;10.38;;;8.20;99.90;;;;;;5002470;28;20582;-80
2023/04/09 06:21:55;;;;;;;16.05;9.25;;;8.30;99.90;;;;;;5001527;28;20447;-81
2023/04/09 06:24:21;;;;;;;16.88;11.98;;;8.30;99.90;;;;;;5002487;28;20526;-80
2023/04/09 06:26:46;;;;;;;17.60;9.98;;;8.20;99.90;;;;;;5001489;28;20488;-82
2023/04/09 06:29:12;;;;;;;15.68;8.43;;;8.30;99.90;;;;;;5001402;28;20038;-81
2023/04/09 06:31:37;;;;;;;21.88;9.82;;;8.30;99.90;;;;;;5001943;28;20559;-81
2023/04/09 06:34:03;;;;;;;16.58;9.52;;;8.30;99.90;;;;;;4993454;28;20404;-79
2023/04/09 06:36:29;;;;;;;14.80;11.10;;;8.30;99.90;;;;;;5001767;28;20295;-82
2023/04/09 06:38:55;;;;;;;22.77;11.77;;;8.30;99.90;;;;;;4991662;28;20500;-80
2023/04/09 06:41:22;;;;;;;13.80;10.32;;;8.30;99.90;;;;;;5001824;28;20038;-82
2023/04/09 06:43:48;;;;;;;12.80;9.68;;;8.30;99.90;;;;;;5001497;28;20042;-81
2023/04/09 06:46:16;;;;;;;18.20;9.77;;;8.30;99.90;;;;;;4994944;28;20061;-82
2023/04/09 06:48:43;;;;;;;16.00;11.10;;;8.30;99.90;;;;;;5000513;28;20041;-81
2023/04/09 06:51:12;;;;;;;15.80;10.80;;;8.40;99.90;;;;;;4996810;28;20038;-80
2023/04/09 06:53:38;;;;;;;20.02;10.80;;;8.40;99.90;;;;;;5000217;28;20104;-82
2023/04/09 06:56:04;;;;;;;17.40;9.20;;;8.40;99.90;;;;;;5002812;28;20100;-80
2023/04/09 06:58:30;;;;;;;19.50;9.23;;;8.40;99.90;;;;;;5003615;28;20105;-83
2023/04/09 07:00:55;;;;;;;18.88;7.97;;;8.40;99.90;;;;;;5002644;28;20049;-83
2023/04/09 07:03:21;;;;;;;14.88;8.77;;;8.40;99.90;;;;;;4986272;28;20077;-82
2023/04/09 07:05:47;;;;;;;18.15;8.95;;;8.40;99.90;;;;;;5002232;28;20435;-82
2023/04/09 07:08:13;;;;;;;13.40;8.65;;;8.40;99.90;;;;;;4984096;28;20555;-82
2023/04/09 07:10:39;;;;;;;21.38;10.15;;;8.40;99.90;;;;;;5002843;28;20087;-83
2023/04/09 07:13:04;;;;;;;15.48;8.65;;;8.40;99.90;;;;;;5001573;28;20038;-81
2023/04/09 07:15:30;;;;;;;11.15;8.52;;;8.40;99.90;;;;;;5002869;28;20069;-82
2023/04/09 07:17:56;;;;;;;14.57;8.57;;;8.40;99.90;;;;;;4994443;28;20123;-83
2023/04/09 07:20:22;;;;;;;12.10;7.60;;;8.40;99.90;;;;;;4997920;28;20061;-82
2023/04/09 07:22:55;;;;;;;15.38;9.13;;;8.40;99.90;;;;;;4999099;28;20046;-83
2023/04/09 07:25:21;;;;;;;13.32;9.77;;;8.40;99.90;;;;;;5002832;28;20080;-83
2023/04/09 07:27:48;;;;;;;9.45;8.18;;;8.50;99.90;;;;;;5002731;28;20049;-81
2023/04/09 07:30:14;;;;;;;15.57;8.68;;;8.50;99.90;;;;;;5000988;28;20042;-80
2023/04/09 07:32:39;;;;;;;14.82;9.48;;;8.50;99.90;;;;;;5003052;28;20096;-84
2023/04/09 07:35:08;;;;;;;19.02;9.50;;;8.50;99.90;;;;;;5001798;28;20569;-83
2023/04/09 07:37:34;;;;;;;14.25;8.85;;;8.50;99.90;;;;;;5000389;28;20107;-80
2023/04/09 07:40:00;;;;;;;16.67;11.43;;;8.50;99.90;;;;;;5002226;28;20498;-83
2023/04/09 07:42:27;;;;;;;24.65;11.52;;;8.50;99.90;;;;;;5001096;28;20050;-83
2023/04/09 07:44:52;;;;;;;18.48;10.02;;;8.50;99.90;;;;;;5004243;28;20281;-81
2023/04/09 07:47:18;;;;;;;13.70;8.88;;;8.50;99.90;;;;;;4995355;28;20034;-81
2023/04/09 07:49:43;;;;;;;19.90;10.23;;;8.50;99.90;;;;;;5004842;28;20042;-80
2023/04/09 07:52:09;;;;;;;16.23;10.73;;;8.50;99.90;;;;;;5005545;28;20056;-79
2023/04/09 07:54:35;;;;;;;14.90;9.77;;;8.50;99.90;;;;;;5004457;28;20049;-79
2023/04/09 07:57:00;;;;;;;14.55;9.23;;;8.50;99.90;;;;;;5005575;28;20129;-80
2023/04/09 07:59:26;;;;;;;15.30;9.75;;;8.50;99.90;;;;;;5005760;28;20046;-82
2023/04/09 08:01:53;;;;;;;16.25;10.73;;;8.50;99.90;;;;;;4990352;28;20039;-81
2023/04/09 08:04:18;;;;;;;16.67;8.50;;;8.50;99.90;;;;;;5003801;28;20042;-82
2023/04/09 08:06:49;;;;;;;18.27;8.82;;;8.50;99.90;;;;;;5003016;28;20053;-85
2023/04/09 08:09:19;;;;;;;15.77;10.30;;;8.50;99.90;;;;;;4999320;28;20054;-81
2023/04/09 08:11:46;;;;;;;21.20;10.07;;;8.50;99.90;;;;;;4996862;28;20113;-82
2023/04/09 08:14:13;;;;;;;14.80;9.93;;;8.50;99.90;;;;;;5002105;28;20062;-82
2023/04/09 08:16:43;;;;;;;15.40;10.02;;;8.50;99.90;;;;;;4994677;28;20077;-80
2023/04/09 08:19:10;;;;;;;18.17;9.88;;;8.50;99.90;;;;;;4987331;28;20046;-80
2023/04/09 08:21:43;;;;;;;17.27;10.70;;;8.50;99.90;;;;;;4985028;28;20042;-80
2023/04/09 08:24:12;;;;;;;21.88;10.38;;;8.50;99.90;;;;;;4988682;28;20042;-81
2023/04/09 08:26:38;;;;;;;14.23;9.93;;;8.50;99.90;;;;;;4994808;28;20097;-79
2023/04/09 08:29:04;;;;;;;18.75;12.45;;;8.50;99.90;;;;;;4987135;28;20133;-79
2023/04/09 08:31:30;;;;;;;18.55;10.20;;;8.50;99.90;;;;;;4995332;28;20129;-80
2023/04/09 08:33:56;;;;;;;19.98;10.68;;;8.60;99.90;;;;;;5006685;28;20042;-79
2023/04/09 08:36:22;;;;;;;21.05;9.88;;;8.60;99.90;;;;;;5005600;28;20066;-80
2023/04/09 08:38:48;;;;;;;18.10;10.27;;;8.50;99.90;;;;;;5005281;28;20049;-80
2023/04/09 08:41:21;;;;;;;22.48;12.85;;;8.50;99.90;;;;;;5005178;28;20133;-80
2023/04/09 08:43:47;;;;;;;16.77;10.07;;;8.60;99.90;;;;;;5006034;28;20656;-82
2023/04/09 08:46:17;;;;;;;18.20;10.80;;;8.60;99.90;;;;;;5006535;28;20048;-82
2023/04/09 08:48:48;;;;;;;20.02;13.10;;;8.60;99.90;;;;;;4995829;28;20046;-82
2023/04/09 08:51:15;;;;;;;19.20;11.32;;;8.60;99.90;;;;;;4985074;28;20046;-82
2023/04/09 08:54:07;;;;;;;25.90;12.43;;;8.60;99.90;;;;;;4984864;28;20464;-83
2023/04/09 08:56:32;;;;;;;19.52;10.43;;;8.60;99.90;;;;;;4998287;28;20155;-81
2023/04/09 08:58:58;;;;;;;17.00;10.60;;;8.60;99.90;;;;;;5002250;28;20080;-81
2023/04/09 09:01:27;;;;;;;19.88;11.43;;;8.70;99.90;;;;;;5006341;28;20599;-80
2023/04/09 09:04:04;;;;;;;20.70;10.38;;;8.70;99.90;;;;;;5005256;28;20042;-82
2023/04/09 09:06:32;;;;;;;22.08;12.65;;;8.70;99.90;;;;;;5004735;28;20085;-81
2023/04/09 09:09:15;;;;;;;20.50;10.27;;;8.70;99.90;;;;;;5003928;28;20045;-81
2023/04/09 09:11:42;;;;;;;;;;;8.80;99.90;;;;;;5005681;28;20050;-82
2023/04/09 09:14:12;;;;;;;13.18;10.50;;;8.80;99.90;;;;;;5005397;28;20042;-81
2023/04/09 09:16:42;;;;;;;20.38;12.98;;;8.80;99.90;;;;;;5005764;28;20065;-81
2023/04/09 09:19:09;;;;;;;18.65;11.35;;;8.80;99.90;;;;;;4996324;28;20491;-80
2023/04/09 09:21:35;;;;;;;22.48;11.10;;;8.80;99.90;;;;;;4996058;28;20049;-82
2023/04/09 09:24:01;;;;;;;19.50;11.13;;;8.80;99.90;;;;;;5005066;28;20552;-81
2023/04/09 09:26:29;;;;;;;22.42;11.02;;;8.80;99.90;;;;;;5005173;28;20046;-81
2023/04/09 09:28:57;;;;;;;15.55;8.50;;;8.80;99.90;;;;;;5005530;28;20056;-80
2023/04/09 09:31:24;;;;;;;20.73;11.45;;;8.80;99.90;;;;;;5004411;28;20496;-81
2023/04/09 09:33:50;;;;;;;20.50;10.88;;;8.80;99.90;;;;;;5002926;28;20085;-81
2023/04/09 09:36:30;;;;;;;22.92;10.35;;;8.90;99.90;;;;;;5005023;28;20135;-81
2023/04/09 09:38:57;;;;;;;16.50;9.93;;;8.90;99.90;;;;;;5002545;28;20050;-82
2023/04/09 09:41:24;;;;;;;16.95;10.30;;;8.90;99.90;;;;;;5003483;28;20496;-80
2023/04/09 09:43:50;;;;;;;19.08;10.25;;;8.90;99.90;;;;;;5003587;28;20133;-79
2023/04/09 09:46:16;;;;;;;18.02;9.63;;;8.90;99.90;;;;;;5002984;28;20133;-81
2023/04/09 09:48:42;;;;;;;20.77;10.55;;;8.90;99.90;;;;;;5003448;28;20057;-81
2023/04/09 09:51:09;;;;;;;19.55;10.32;;;9.00;99.90;;;;;;5004520;28;20065;-80
2023/04/09 09:53:36;;;;;;;20.90;10.48;;;9.00;99.90;;;;;;5002812;28;20054;-79
2023/04/09 09:56:04;;;;;;;18.20;9.88;;;9.00;99.90;;;;;;5003881;28;20616;-81
2023/04/09 09:58:40;;;;;;;23.02;12.00;;;9.00;99.90;;;;;;5004069;28;20096;-81
2023/04/09 10:01:12;;;;;;;20.20;10.50;;;9.00;99.90;;;;;;5002515;28;20046;-81
2023/04/09 10:03:41;;;;;;;17.48;9.13;;;9.10;99.90;;;;;;5002899;28;20038;-82
2023/04/09 10:06:09;;;;;;;18.05;10.80;;;9.10;99.90;;;;;;5002906;28;20092;-82
2023/04/09 10:08:37;;;;;;;15.77;10.38;;;9.10;99.90;;;;;;5003452;28;20053;-79
2023/04/09 10:11:04;;;;;;;21.42;10.60;;;9.20;99.90;;;;;;5004244;28;20112;-81
2023/04/09 10:13:37;;;;;;;20.67;10.63;;;9.20;99.90;;;;;;5003827;28;20056;-81
2023/04/09 10:16:03;;;;;;;18.00;10.68;;;9.20;99.90;;;;;;4985740;28;20062;-79
2023/04/09 10:18:33;;;;;;;15.55;8.02;;;9.30;99.90;;;;;;5002659;28;20052;-80
2023/04/09 10:21:34;;;;;;;16.38;9.98;;;9.30;99.90;;;;;;5011220;28;20048;-83
2023/04/09 10:24:04;;;;;;;18.77;9.80;;;9.30;99.90;;;;;;4974318;28;20042;-82
2023/04/09 10:26:32;;;;;;;15.20;8.68;;;9.40;99.90;;;;;;5003172;28;20077;-83
2023/04/09 10:29:17;;;;;;;23.70;9.27;;;9.40;99.90;;;;;;5003637;28;20037;-84
2023/04/09 10:32:22;;;;;;;11.68;8.23;;;9.40;99.90;;;;;;5003239;28;20042;-79
2023/04/09 10:34:49;;;;;;;18.60;8.48;;;9.40;99.90;;;;;;4927040;29;20051;-83
2023/04/09 10:37:24;;;;;;;12.48;9.13;;;9.50;99.90;;;;;;4954638;28;20484;-83
2023/04/09 10:39:51;;;;;;;17.23;9.25;;;9.50;99.90;;;;;;4976352;28;20061;-81
2023/04/09 10:42:26;;;;;;;14.57;9.45;;;9.50;99.90;;;;;;5001000;28;20046;-81
2023/04/09 10:45:37;;;;;;;17.50;10.30;;;9.60;99.90;;;;;;5003450;28;20041;-79
2023/04/09 10:48:03;;;;;;;20.13;10.93;;;9.60;99.90;;;;;;4976281;28;20058;-82
2023/04/09 10:50:31;;;;;;;16.65;9.50;;;9.60;99.90;;;;;;4991789;28;20129;-79
2023/04/09 10:52:59;;;;;;;15.63;8.65;;;9.60;99.90;;;;;;4980542;28;20125;-79
2023/04/09 10:55:35;;;;;;;18.30;10.23;;;9.70;99.90;;;;;;5003370;28;20455;-80
2023/04/09 10:58:01;;;;;;;16.02;9.25;;;9.70;99.90;;;;;;4983023;28;20054;-78
2023/04/09 11:00:27;;;;;;;16.50;8.98;;;9.80;99.90;;;;;;4985486;28;20046;-83
2023/04/09 11:03:03;;;;;;;15.23;8.70;;;9.80;99.90;;;;;;4988875;28;20030;-81
2023/04/09 11:05:33;;;;;;;17.75;8.23;;;9.90;99.90;;;;;;4991851;28;20111;-80
2023/04/09 11:08:05;;;;;;;19.50;8.48;;;10.00;99.90;;;;;;4990886;28;20515;-79
2023/04/09 11:10:32;;;;;;;14.02;8.38;;;10.00;99.90;;;;;;5002724;28;20046;-79
2023/04/09 11:12:57;;;;;;;18.88;9.25;;;10.00;99.90;;;;;;5003969;28;20073;-81
2023/04/09 11:15:23;;;;;;;14.98;9.25;;;10.10;99.90;;;;;;5001887;28;20437;-80
2023/04/09 11:17:49;;;;;;;15.65;9.30;;;10.10;99.90;;;;;;4998505;28;20070;-79
2023/04/09 11:20:23;;;;;;;15.15;8.77;;;10.30;99.90;;;;;;5003947;28;20088;-80
2023/04/09 11:22:50;;;;;;;18.20;10.38;;;10.30;99.90;;;;;;5004568;28;20042;-80
2023/04/09 11:25:34;;;;;;;18.65;9.50;;;10.40;99.90;;;;;;5001060;28;20053;-79
2023/04/09 11:28:02;;;;;;;16.45;7.50;;;10.50;99.90;;;;;;4995396;28;20054;-79
2023/04/09 11:30:29;;;;;;;10.65;7.78;;;10.70;99.90;;;;;;5000263;28;20088;-80
2023/04/09 11:32:55;;;;;;;17.63;7.30;;;10.70;99.90;;;;;;5003702;28;20056;-78
2023/04/09 11:35:22;;;;;;;16.33;8.27;;;10.80;99.90;;;;;;5003576;28;20053;-81
2023/04/09 11:37:50;;;;;;;18.02;8.98;;;10.90;99.90;;;;;;4993397;28;20034;-87
2023/04/09 11:40:24;;;;;;;16.15;8.23;;;11.00;99.90;;;;;;5004527;28;20103;-81
2023/04/09 11:42:52;;;;;;;16.63;9.45;;;11.00;99.90;;;;;;5004806;28;20054;-84
2023/04/09 11:45:20;;;;;;;15.05;7.15;;;11.00;99.90;;;;;;4997209;28;20042;-85
2023/04/09 11:47:46;;;;;;;18.98;8.48;;;11.00;99.90;;;;;;5003959;28;20643;-86
2023/04/09 11:50:13;;;;;;;13.57;8.10;;;11.00;99.90;;;;;;4990081;28;20044;-78
2023/04/09 11:52:40;;;;;;;17.05;7.85;;;11.00;99.90;;;;;;5004499;28;20050;-85
2023/04/09 11:55:07;;;;;;;17.70;8.70;;;11.10;99.90;;;;;;4993657;28;20049;-86
2023/04/09 11:57:38;;;;;;;16.02;7.65;;;11.10;99.90;;;;;;5018249;28;20088;-86
2023/04/09 12:00:08;;;;;;;16.42;8.10;;;11.10;99.90;;;;;;4999209;28;20424;-83
2023/04/09 12:02:59;;;;;;;20.90;7.70;;;11.20;99.90;;;;;;4996889;28;20039;-88
2023/04/09 12:05:28;;;;;;;14.93;8.73;;;11.20;99.90;;;;;;4986424;28;20060;-83
2023/04/09 12:08:06;;;;;;;12.32;7.43;;;11.20;99.90;;;;;;5004782;28;20034;-83
2023/04/09 12:10:35;;;;;;;11.40;6.80;;;11.20;99.90;;;;;;4988995;28;20088;-81
2023/04/09 12:13:12;;;;;;;19.15;8.80;;;11.20;99.90;;;;;;5006175;28;20041;-83
2023/04/09 12:15:40;;;;;;;12.82;6.57;;;11.30;99.90;;;;;;5005382;28;20093;-82
2023/04/09 12:18:10;;;;;;;17.55;9.82;;;11.30;99.90;;;;;;5002196;28;20427;-82
2023/04/09 12:20:43;;;;;;;14.40;7.15;;;11.30;99.90;;;;;;5006513;28;20194;-87
2023/04/09 12:23:10;;;;;;;18.70;7.95;;;11.40;99.90;;;;;;4993952;28;20049;-78
2023/04/09 12:25:38;;;;;;;16.13;8.32;;;11.40;99.90;;;;;;5006543;28;20045;-82
2023/04/09 12:28:05;;;;;;;17.52;8.82;;;11.40;99.90;;;;;;5004040;28;20103;-83
2023/04/09 12:30:32;;;;;;;14.27;8.32;;;11.40;99.90;;;;;;5004801;28;20049;-81
2023/04/09 12:32:58;;;;;;;15.30;7.70;;;11.40;99.90;;;;;;5001975;28;20045;-86
2023/04/09 12:35:24;;;;;;;12.40;7.40;;;11.50;99.90;;;;;;5003073;28;20072;-88
2023/04/09 12:37:50;;;;;;;17.27;9.10;;;11.60;99.90;;;;;;4999350;28;20042;-84
2023/04/09 12:40:16;;;;;;;17.70;8.38;;;11.60;99.90;;;;;;4986817;28;20046;-86
2023/04/09 12:42:43;;;;;;;12.65;7.82;;;11.80;99.90;;;;;;5004135;28;20037;-85